createdAt,value
2022-12-20T00:01:34.471Z,19.52
2022-12-20T00:04:03.719Z,26.25
2022-12-20T00:06:30.571Z,24.15
2022-12-20T00:08:59.831Z,18.38
2022-12-20T00:11:27.830Z,16.77
2022-12-20T00:13:55.038Z,17.98
2022-12-20T00:16:24.458Z,22.30
2022-12-20T00:18:52.789Z,22.17
2022-12-20T00:21:20.325Z,21.15
2022-12-20T00:23:47.030Z,23.80
2022-12-20T00:26:18.888Z,21.75
2022-12-20T00:28:45.665Z,19.27
2022-12-20T00:31:14.147Z,18.73
2022-12-20T00:33:41.807Z,17.50
2022-12-20T00:36:08.700Z,25.05
2022-12-20T00:38:35.575Z,18.10
2022-12-20T00:41:02.445Z,20.60
2022-12-20T00:43:29.489Z,18.55
2022-12-20T00:45:56.202Z,20.27
2022-12-20T00:48:23.308Z,20.17
2022-12-20T00:50:50.386Z,24.58
2022-12-20T00:53:22.709Z,20.23
2022-12-20T00:55:59.035Z,18.50
2022-12-20T00:58:26.698Z,18.20
2022-12-20T01:00:56.516Z,20.30
2022-12-20T01:03:25.125Z,21.45
2022-12-20T01:05:58.399Z,19.92
2022-12-20T01:08:27.127Z,19.70
2022-12-20T01:11:00.763Z,20.00
2022-12-20T01:13:30.739Z,17.95
2022-12-20T01:15:57.605Z,21.50
2022-12-20T01:18:24.378Z,18.17
2022-12-20T01:21:03.977Z,21.85
2022-12-20T01:23:31.102Z,17.95
2022-12-20T01:25:59.813Z,16.88
2022-12-20T01:28:27.498Z,18.10
2022-12-20T01:30:54.183Z,17.65
2022-12-20T01:33:20.995Z,17.10
2022-12-20T01:35:58.170Z,20.08
2022-12-20T01:38:25.083Z,19.58
2022-12-20T01:40:52.413Z,18.48
2022-12-20T01:43:20.156Z,16.58
2022-12-20T01:45:47.141Z,16.83
2022-12-20T01:48:26.039Z,17.50
2022-12-20T01:50:53.607Z,16.45
2022-12-20T01:53:22.018Z,17.95
2022-12-20T01:55:49.339Z,17.85
2022-12-20T01:58:19.007Z,16.05
2022-12-20T02:00:45.767Z,20.00
2022-12-20T02:03:15.381Z,18.02
2022-12-20T02:05:45.394Z,17.58
2022-12-20T02:08:14.004Z,15.93
2022-12-20T02:11:03.774Z,21.08
2022-12-20T02:13:36.656Z,17.35
2022-12-20T02:16:04.625Z,16.98
2022-12-20T02:18:31.947Z,18.35
2022-12-20T02:21:32.071Z,17.30
2022-12-20T02:24:10.327Z,15.70
2022-12-20T02:27:14.285Z,19.00
2022-12-20T02:30:14.583Z,16.45
2022-12-20T02:33:00.237Z,14.93
2022-12-20T02:35:33.763Z,16.55
2022-12-20T02:38:03.425Z,15.57
2022-12-20T02:40:35.468Z,22.10
2022-12-20T02:43:25.279Z,17.23
2022-12-20T02:45:57.077Z,15.27
2022-12-20T02:48:24.706Z,15.25
2022-12-20T02:50:54.024Z,18.52
2022-12-20T02:53:20.974Z,16.17
2022-12-20T02:56:14.218Z,19.33
2022-12-20T02:58:46.295Z,13.90
2022-12-20T03:01:30.962Z,18.38
2022-12-20T03:03:59.229Z,14.07
2022-12-20T03:06:30.931Z,16.58
2022-12-20T03:08:57.583Z,18.27
2022-12-20T03:11:24.291Z,17.58
2022-12-20T03:13:52.287Z,18.80
2022-12-20T03:16:19.051Z,17.20
2022-12-20T03:18:46.301Z,16.98
2022-12-20T03:21:13.039Z,15.07
2022-12-20T03:23:39.640Z,14.27
2022-12-20T03:26:06.322Z,13.45
2022-12-20T03:28:33.023Z,15.75
2022-12-20T03:30:59.878Z,15.93
2022-12-20T03:33:26.767Z,18.75
2022-12-20T03:35:53.528Z,15.10
2022-12-20T03:38:20.182Z,17.30
2022-12-20T03:40:47.015Z,15.75
2022-12-20T03:43:13.806Z,14.75
2022-12-20T03:45:40.497Z,15.27
2022-12-20T03:48:07.187Z,15.30
2022-12-20T03:50:34.834Z,14.40
2022-12-20T03:53:01.904Z,16.35
2022-12-20T03:55:28.726Z,14.45
2022-12-20T03:57:58.256Z,14.77
2022-12-20T04:00:25.118Z,16.10
2022-12-20T04:02:52.567Z,16.08
2022-12-20T04:05:19.774Z,14.07
2022-12-20T04:07:46.739Z,16.08
2022-12-20T04:10:13.640Z,15.10
2022-12-20T04:12:40.453Z,17.02
2022-12-20T04:15:08.211Z,15.20
2022-12-20T04:17:35.013Z,17.05
2022-12-20T04:20:20.480Z,17.65
2022-12-20T04:22:48.708Z,16.33
2022-12-20T04:25:17.063Z,17.10
2022-12-20T04:27:43.830Z,15.18
2022-12-20T04:30:11.561Z,14.90
2022-12-20T04:32:38.453Z,14.43
2022-12-20T04:35:05.623Z,17.92
2022-12-20T04:37:32.345Z,15.50
2022-12-20T04:39:59.131Z,12.57
2022-12-20T04:42:26.275Z,13.75
2022-12-20T04:44:52.998Z,13.43
2022-12-20T04:47:19.714Z,13.80
2022-12-20T04:49:46.568Z,11.90
2022-12-20T04:52:31.894Z,13.00
2022-12-20T04:54:58.698Z,14.75
2022-12-20T04:57:25.418Z,16.90
2022-12-20T04:59:54.089Z,17.92
2022-12-20T05:02:23.573Z,17.08
2022-12-20T05:04:50.385Z,14.90
2022-12-20T05:07:17.476Z,15.70
2022-12-20T05:09:44.161Z,15.50
2022-12-20T05:12:10.912Z,16.80
2022-12-20T05:14:37.750Z,13.77
2022-12-20T05:17:04.740Z,13.38
2022-12-20T05:19:31.720Z,9.70
2022-12-20T05:22:19.104Z,5.70
2022-12-20T05:25:04.431Z,4.35
2022-12-20T05:27:34.026Z,4.95
2022-12-20T05:30:00.745Z,7.00
2022-12-20T05:32:27.348Z,10.55
2022-12-20T05:34:54.270Z,13.63
2022-12-20T05:37:21.149Z,15.27
2022-12-20T05:39:51.252Z,12.85
2022-12-20T05:42:18.415Z,17.13
2022-12-20T05:44:45.217Z,15.75
2022-12-20T05:47:12.008Z,13.63
2022-12-20T05:49:38.824Z,14.45
2022-12-20T05:52:05.760Z,14.18
2022-12-20T05:54:32.900Z,14.93
2022-12-20T05:56:59.583Z,15.85
2022-12-20T05:59:26.431Z,12.95
2022-12-20T06:01:53.355Z,14.18
2022-12-20T06:04:23.231Z,15.57
2022-12-20T06:06:49.988Z,14.30
2022-12-20T06:09:16.701Z,13.73
2022-12-20T06:11:43.415Z,14.68
2022-12-20T06:14:10.459Z,15.48
2022-12-20T06:16:37.158Z,9.57
2022-12-20T06:19:04.250Z,12.68
2022-12-20T06:21:32.276Z,15.90
2022-12-20T06:23:58.917Z,17.77
2022-12-20T06:26:36.199Z,14.38
2022-12-20T06:29:04.855Z,19.02
2022-12-20T06:31:31.833Z,13.98
2022-12-20T06:33:58.633Z,21.45
2022-12-20T06:36:25.431Z,16.58
2022-12-20T06:38:52.554Z,16.92
2022-12-20T06:41:19.498Z,18.30
2022-12-20T06:43:46.351Z,20.27
2022-12-20T06:46:13.213Z,18.58
2022-12-20T06:48:40.086Z,16.33
2022-12-20T06:51:06.776Z,18.48
2022-12-20T06:53:33.400Z,14.20
2022-12-20T06:56:00.169Z,21.38
2022-12-20T06:58:26.962Z,16.98
2022-12-20T07:00:54.946Z,15.95
2022-12-20T07:03:21.664Z,15.73
2022-12-20T07:05:54.888Z,13.70
2022-12-20T07:08:22.612Z,12.65
2022-12-20T07:10:49.644Z,15.68
2022-12-20T07:13:16.342Z,15.70
2022-12-20T07:15:43.367Z,16.38
2022-12-20T07:18:10.506Z,14.35
2022-12-20T07:20:37.280Z,16.80
2022-12-20T07:23:04.428Z,17.10
2022-12-20T07:25:33.784Z,16.38
2022-12-20T07:28:00.691Z,18.08
2022-12-20T07:30:27.426Z,15.10
2022-12-20T07:32:54.285Z,23.40
2022-12-20T07:35:23.694Z,14.27
2022-12-20T07:37:52.719Z,17.13
2022-12-20T07:40:19.818Z,19.98
2022-12-20T07:42:49.285Z,9.18
2022-12-20T07:45:16.564Z,14.98
2022-12-20T07:47:44.103Z,18.33
2022-12-20T07:50:11.980Z,14.77
2022-12-20T07:52:39.847Z,20.90
2022-12-20T07:55:08.546Z,15.02
2022-12-20T07:57:44.037Z,15.30
2022-12-20T08:00:11.717Z,19.63
2022-12-20T08:02:46.044Z,20.10
2022-12-20T08:05:13.336Z,19.38
2022-12-20T08:07:41.692Z,17.02
2022-12-20T08:10:10.076Z,22.50
2022-12-20T08:12:37.065Z,24.00
2022-12-20T08:15:04.299Z,24.17
2022-12-20T08:17:31.045Z,17.40
2022-12-20T08:19:57.972Z,22.40
2022-12-20T08:22:24.803Z,22.13
2022-12-20T08:24:51.929Z,20.25
2022-12-20T08:27:18.715Z,20.17
2022-12-20T08:29:45.662Z,21.33
2022-12-20T08:32:14.390Z,19.42
2022-12-20T08:34:41.174Z,18.27
2022-12-20T08:37:14.572Z,22.15
2022-12-20T08:39:41.935Z,18.10
2022-12-20T08:42:08.731Z,21.05
2022-12-20T08:44:35.380Z,18.88
2022-12-20T08:47:02.070Z,20.00
2022-12-20T08:49:29.053Z,19.80
2022-12-20T08:51:55.837Z,19.63
2022-12-20T08:54:22.646Z,20.90
2022-12-20T08:56:49.449Z,21.77
2022-12-20T08:59:19.448Z,22.85
2022-12-20T09:01:46.462Z,22.17
2022-12-20T09:04:13.324Z,23.95
2022-12-20T09:06:39.968Z,17.70
2022-12-20T09:09:07.644Z,21.98
2022-12-20T09:11:34.807Z,18.42
2022-12-20T09:14:01.511Z,18.75
2022-12-20T09:16:30.711Z,21.25
2022-12-20T09:19:04.587Z,21.70
2022-12-20T09:21:32.724Z,23.67
2022-12-20T09:23:59.704Z,18.23
2022-12-20T09:26:26.608Z,21.98
2022-12-20T09:28:54.113Z,18.90
2022-12-20T09:31:23.402Z,23.92
2022-12-20T09:33:50.688Z,17.27
2022-12-20T09:36:22.101Z,18.20
2022-12-20T09:38:49.340Z,23.42
2022-12-20T09:41:41.244Z,20.75
2022-12-20T09:44:25.675Z,20.13
2022-12-20T09:47:03.629Z,21.27
2022-12-20T09:49:37.085Z,20.05
2022-12-20T09:52:25.980Z,17.65
2022-12-20T09:54:58.001Z,18.50
2022-12-20T09:57:55.432Z,18.40
2022-12-20T10:00:22.214Z,21.55
2022-12-20T10:03:09.881Z,17.27
2022-12-20T10:05:41.982Z,18.42
2022-12-20T10:08:42.454Z,17.30
2022-12-20T10:11:43.394Z,17.80
2022-12-20T10:14:40.945Z,21.48
2022-12-20T10:17:25.016Z,17.13
2022-12-20T10:20:14.954Z,14.32
2022-12-20T10:22:47.168Z,18.33
2022-12-20T10:25:24.064Z,15.68
2022-12-20T10:27:54.530Z,18.02
2022-12-20T10:30:24.134Z,16.15
2022-12-20T10:32:53.926Z,16.13
2022-12-20T10:35:38.789Z,19.83
2022-12-20T10:38:09.916Z,19.77
2022-12-20T10:43:43.250Z,20.35
2022-12-20T10:46:10.629Z,13.30
2022-12-20T10:48:42.284Z,18.50
2022-12-20T10:51:15.177Z,17.75
2022-12-20T10:53:58.157Z,17.30
2022-12-20T10:56:36.530Z,16.50
2022-12-20T10:59:18.518Z,14.63
2022-12-20T11:01:47.112Z,13.93
2022-12-20T11:04:35.779Z,15.23
2022-12-20T11:07:14.105Z,15.18
2022-12-20T11:09:53.548Z,12.23
2022-12-20T11:12:20.343Z,12.55
2022-12-20T11:14:49.217Z,14.48
2022-12-20T11:17:33.739Z,19.88
2022-12-20T11:20:16.917Z,14.77
2022-12-20T11:22:43.636Z,16.25
2022-12-20T11:25:31.822Z,13.65
2022-12-20T11:28:26.369Z,21.05
2022-12-20T11:31:06.053Z,13.95
2022-12-20T11:34:00.579Z,13.55
2022-12-20T11:36:49.577Z,16.58
2022-12-20T11:39:37.255Z,14.52
2022-12-20T11:42:29.070Z,12.30
2022-12-20T11:45:14.028Z,11.32
2022-12-20T11:48:17.891Z,13.95
2022-12-20T11:50:56.750Z,12.40
2022-12-20T11:53:28.617Z,11.30
2022-12-20T11:56:02.472Z,13.60
2022-12-20T11:58:55.087Z,12.07
2022-12-20T12:01:27.706Z,11.68
2022-12-20T12:04:09.366Z,14.02
2022-12-20T12:06:43.066Z,12.45
2022-12-20T12:09:34.694Z,14.73
2022-12-20T12:12:10.913Z,12.25
2022-12-20T12:14:50.817Z,14.57
2022-12-20T12:17:25.075Z,12.32
2022-12-20T12:19:57.828Z,11.88
2022-12-20T12:22:33.706Z,15.40
2022-12-20T12:25:03.664Z,15.02
2022-12-20T12:27:30.317Z,14.00
2022-12-20T12:29:58.685Z,13.15
2022-12-20T12:32:35.050Z,13.25
2022-12-20T12:35:26.464Z,11.55
2022-12-20T12:38:21.232Z,11.02
2022-12-20T12:41:00.338Z,12.18
2022-12-20T12:43:46.116Z,13.25
2022-12-20T12:46:35.334Z,15.88
2022-12-20T12:49:10.445Z,12.45
2022-12-20T12:51:39.927Z,12.32
2022-12-20T12:54:09.577Z,13.18
2022-12-20T12:56:48.881Z,13.20
2022-12-20T12:59:47.178Z,13.63
2022-12-20T13:02:13.982Z,15.88
2022-12-20T13:05:11.326Z,15.18
2022-12-20T13:07:40.214Z,15.52
2022-12-20T13:10:10.005Z,11.00
2022-12-20T13:12:36.662Z,13.27
2022-12-20T13:15:21.889Z,11.60
2022-12-20T13:17:51.539Z,14.10
2022-12-20T13:20:19.809Z,14.60
2022-12-20T13:23:07.894Z,11.20
2022-12-20T13:25:38.733Z,13.25
2022-12-20T13:28:23.684Z,14.48
2022-12-20T13:31:02.796Z,12.50
2022-12-20T13:33:44.015Z,15.10
2022-12-20T13:36:10.704Z,13.50
2022-12-20T13:38:39.941Z,12.05
2022-12-20T13:41:35.197Z,10.38
2022-12-20T13:44:41.713Z,15.07
2022-12-20T13:47:30.487Z,12.98
2022-12-20T13:50:00.574Z,12.00
2022-12-20T13:52:30.155Z,14.40
2022-12-20T13:55:15.283Z,14.48
2022-12-20T13:57:43.951Z,12.32
2022-12-20T14:00:25.765Z,12.63
2022-12-20T14:02:53.273Z,12.32
2022-12-20T14:05:40.276Z,16.00
2022-12-20T14:08:18.189Z,13.82
2022-12-20T14:10:44.955Z,11.85
2022-12-20T14:13:29.253Z,14.77
2022-12-20T14:15:58.633Z,12.52
2022-12-20T14:18:26.283Z,10.25
2022-12-20T14:20:58.881Z,11.85
2022-12-20T14:23:31.859Z,15.10
2022-12-20T14:26:03.011Z,11.90
2022-12-20T14:28:37.448Z,16.55
2022-12-20T14:31:05.557Z,14.70
2022-12-20T14:33:37.793Z,12.77
2022-12-20T14:36:16.830Z,13.55
2022-12-20T14:38:46.005Z,11.75
2022-12-20T14:41:31.954Z,12.18
2022-12-20T14:44:03.039Z,14.07
2022-12-20T14:46:31.101Z,14.98
2022-12-20T14:49:20.158Z,13.65
2022-12-20T14:51:49.986Z,14.25
2022-12-20T14:55:05.845Z,15.10
2022-12-20T14:57:27.649Z,18.05
2022-12-20T15:00:13.672Z,13.75
2022-12-20T15:02:51.402Z,10.73
2022-12-20T15:05:33.900Z,14.18
2022-12-20T15:08:33.150Z,11.80
2022-12-20T15:11:09.086Z,11.75
2022-12-20T15:13:36.559Z,15.65
2022-12-20T15:16:18.708Z,11.68
2022-12-20T15:18:46.678Z,14.60
2022-12-20T15:21:22.638Z,11.85
2022-12-20T15:23:51.745Z,12.77
2022-12-20T15:26:21.042Z,24.67
2022-12-20T15:28:48.036Z,14.00
2022-12-20T15:31:16.948Z,16.27
2022-12-20T15:33:44.596Z,17.23
2022-12-20T15:36:19.268Z,18.23
2022-12-20T15:39:11.170Z,19.27
2022-12-20T15:41:34.878Z,18.00
2022-12-20T15:44:06.351Z,18.27
2022-12-20T15:46:33.023Z,18.08
2022-12-20T15:48:59.782Z,19.10
2022-12-20T15:51:37.935Z,17.58
2022-12-20T15:54:06.021Z,20.42
2022-12-20T15:56:35.508Z,17.80
2022-12-20T15:59:17.782Z,21.17
2022-12-20T16:01:49.251Z,19.27
2022-12-20T16:04:23.125Z,20.13
2022-12-20T16:06:53.754Z,17.30
2022-12-20T16:09:21.406Z,17.55
2022-12-20T16:11:48.415Z,18.77
2022-12-20T16:14:21.366Z,18.70
2022-12-20T16:16:50.232Z,18.88
2022-12-20T16:19:17.682Z,17.00
2022-12-20T16:21:48.105Z,19.10
2022-12-20T16:24:21.329Z,20.65
2022-12-20T16:26:50.528Z,19.52
2022-12-20T16:29:17.194Z,16.13
2022-12-20T16:31:43.911Z,21.95
2022-12-20T16:34:14.081Z,22.55
2022-12-20T16:36:40.895Z,20.27
2022-12-20T16:39:10.274Z,19.48
2022-12-20T16:41:38.138Z,20.15
2022-12-20T16:44:04.909Z,20.23
2022-12-20T16:46:33.032Z,22.73
2022-12-20T16:49:00.805Z,21.45
2022-12-20T16:51:31.724Z,21.83
2022-12-20T16:54:18.661Z,20.10
2022-12-20T16:56:52.115Z,21.17
2022-12-20T16:59:21.616Z,24.27
2022-12-20T17:01:50.662Z,25.15
2022-12-20T17:04:20.651Z,28.60
2022-12-20T17:06:49.878Z,22.05
2022-12-20T17:12:00.282Z,23.52
2022-12-20T17:14:26.952Z,25.73
2022-12-20T17:16:53.733Z,29.23
2022-12-20T17:19:20.459Z,26.95
2022-12-20T17:24:29.600Z,19.88
2022-12-20T17:26:56.215Z,19.88
2022-12-20T17:29:22.872Z,20.20
2022-12-20T17:31:50.034Z,19.83
2022-12-20T17:34:19.041Z,19.88
2022-12-20T17:36:46.555Z,16.55
2022-12-20T17:39:20.283Z,21.35
2022-12-20T17:41:47.326Z,21.40
2022-12-20T17:44:19.267Z,19.20
2022-12-20T17:46:45.994Z,19.73
2022-12-20T17:49:13.001Z,23.40
2022-12-20T17:51:39.819Z,23.27
2022-12-20T17:54:06.624Z,22.48
2022-12-20T17:56:34.993Z,19.27
2022-12-20T17:59:04.678Z,19.05
2022-12-20T18:01:33.332Z,18.77
2022-12-20T18:04:04.588Z,18.92
2022-12-20T18:06:33.524Z,19.65
2022-12-20T18:09:00.794Z,17.35
2022-12-20T18:11:28.813Z,20.38
2022-12-20T18:13:57.922Z,18.90
2022-12-20T18:16:29.000Z,18.23
2022-12-20T18:18:56.368Z,23.13
2022-12-20T18:21:24.999Z,18.40
2022-12-20T18:23:52.485Z,18.30
2022-12-20T18:26:23.603Z,18.77
2022-12-20T18:28:51.901Z,18.23
2022-12-20T18:31:20.835Z,21.63
2022-12-20T18:33:53.897Z,20.73
2022-12-20T18:36:29.182Z,21.75
2022-12-20T18:38:58.272Z,21.33
2022-12-20T18:41:27.159Z,18.00
2022-12-20T18:43:56.539Z,19.58
2022-12-20T18:46:23.707Z,17.17
2022-12-20T18:48:51.384Z,19.05
2022-12-20T18:51:23.545Z,21.23
2022-12-20T18:53:51.756Z,20.45
2022-12-20T18:56:21.346Z,18.08
2022-12-20T18:58:48.758Z,21.38
2022-12-20T19:01:18.149Z,18.92
2022-12-20T19:03:45.145Z,17.25
2022-12-20T19:06:12.496Z,19.08
2022-12-20T19:08:40.221Z,22.08
2022-12-20T19:11:15.297Z,17.67
2022-12-20T19:13:42.389Z,14.73
2022-12-20T19:16:13.125Z,17.05
2022-12-20T19:18:41.354Z,23.17
2022-12-20T19:21:12.996Z,19.75
2022-12-20T19:23:41.054Z,23.27
2022-12-20T19:26:10.187Z,21.88
2022-12-20T19:28:36.960Z,18.70
2022-12-20T19:31:20.913Z,21.30
2022-12-20T19:33:48.342Z,18.00
2022-12-20T19:36:26.459Z,20.42
2022-12-20T19:38:58.388Z,19.10
2022-12-20T19:41:27.977Z,17.50
2022-12-20T19:43:54.738Z,21.00
2022-12-20T19:46:28.412Z,19.85
2022-12-20T19:48:56.481Z,19.20
2022-12-20T19:51:23.564Z,21.77
2022-12-20T19:53:51.816Z,20.60
2022-12-20T19:56:20.764Z,17.30
2022-12-20T19:58:47.979Z,22.80
2022-12-20T20:01:15.915Z,21.52
2022-12-20T20:03:42.976Z,19.45
2022-12-20T20:06:09.902Z,24.42
2022-12-20T20:08:36.751Z,22.60
2022-12-20T20:11:09.344Z,19.10
2022-12-20T20:13:36.568Z,18.98
2022-12-20T20:16:06.830Z,21.55
2022-12-20T20:18:35.210Z,22.60
2022-12-20T20:21:09.954Z,22.85
2022-12-20T20:23:37.689Z,23.38
2022-12-20T20:26:10.599Z,22.75
2022-12-20T20:28:44.489Z,21.48
2022-12-20T20:31:16.609Z,24.92
2022-12-20T20:33:43.798Z,20.48
2022-12-20T20:36:13.591Z,22.98
2022-12-20T20:38:40.643Z,24.15
2022-12-20T20:41:07.858Z,20.95
2022-12-20T20:43:38.252Z,19.17
2022-12-20T20:46:09.098Z,22.73
2022-12-20T20:48:36.171Z,21.30
2022-12-20T20:51:03.218Z,20.77
2022-12-20T20:53:33.980Z,22.30
2022-12-20T20:56:02.320Z,22.73
2022-12-20T20:58:29.348Z,21.40
2022-12-20T21:01:00.707Z,25.65
2022-12-20T21:03:28.768Z,19.90
2022-12-20T21:08:42.422Z,22.15
2022-12-20T21:11:09.722Z,17.80
2022-12-20T21:13:36.886Z,24.13
2022-12-20T21:16:08.449Z,20.25
2022-12-20T21:18:35.212Z,19.67
2022-12-20T21:21:09.383Z,23.95
2022-12-20T21:23:36.505Z,20.85
2022-12-20T21:26:03.752Z,17.88
2022-12-20T21:28:31.803Z,20.52
2022-12-20T21:31:03.349Z,19.25
2022-12-20T21:33:30.007Z,20.60
2022-12-20T21:36:04.882Z,19.98
2022-12-20T21:38:31.824Z,17.95
2022-12-20T21:41:02.640Z,23.88
2022-12-20T21:43:29.575Z,22.95
2022-12-20T21:45:56.725Z,19.40
2022-12-20T21:48:23.835Z,15.90
2022-12-20T21:51:04.859Z,17.92
2022-12-20T21:53:32.979Z,17.10
2022-12-20T21:56:00.685Z,21.02
2022-12-20T21:58:29.291Z,22.60
2022-12-20T22:00:57.298Z,20.75
2022-12-20T22:03:24.671Z,20.00
2022-12-20T22:05:53.664Z,21.30
2022-12-20T22:08:21.028Z,17.50
2022-12-20T22:10:49.954Z,21.23
2022-12-20T22:13:16.918Z,19.85
2022-12-20T22:15:43.593Z,20.30
2022-12-20T22:18:10.332Z,21.00
2022-12-20T22:20:37.134Z,22.02
2022-12-20T22:23:04.501Z,18.48
2022-12-20T22:25:31.752Z,19.00
2022-12-20T22:27:58.461Z,21.33
2022-12-20T22:30:25.189Z,18.67
2022-12-20T22:32:51.804Z,18.33
2022-12-20T22:35:22.763Z,18.70
2022-12-20T22:37:50.734Z,20.85
2022-12-20T22:40:18.148Z,22.92
2022-12-20T22:42:44.947Z,22.30
2022-12-20T22:45:12.209Z,23.65
2022-12-20T22:47:40.591Z,15.68
2022-12-20T22:50:10.949Z,21.25
2022-12-20T22:52:37.559Z,21.65
2022-12-20T22:55:04.981Z,24.50
2022-12-20T22:57:32.942Z,19.20
2022-12-20T22:59:59.669Z,18.80
2022-12-20T23:02:27.791Z,21.17
2022-12-20T23:04:54.641Z,19.58
2022-12-20T23:07:21.869Z,19.45
2022-12-20T23:09:49.963Z,19.98
2022-12-20T23:12:35.276Z,20.23
2022-12-20T23:15:20.513Z,19.05
2022-12-20T23:17:47.344Z,19.65
2022-12-20T23:20:32.403Z,21.00
2022-12-20T23:22:59.250Z,22.40
2022-12-20T23:25:26.008Z,22.42
2022-12-20T23:27:53.022Z,19.05
2022-12-20T23:30:22.504Z,22.67
2022-12-20T23:32:49.704Z,21.20
2022-12-20T23:35:18.253Z,23.38
2022-12-20T23:37:48.089Z,20.95
2022-12-20T23:40:16.448Z,27.70
2022-12-20T23:42:43.814Z,21.48
2022-12-20T23:45:10.950Z,19.33
2022-12-20T23:47:37.587Z,24.88
2022-12-20T23:50:04.759Z,21.20
2022-12-20T23:52:31.452Z,24.42
2022-12-20T23:54:58.321Z,25.38
2022-12-20T23:57:25.236Z,21.38
2022-12-20T23:59:51.898Z,27.88
